This is the latest recevied weather packets stored in our database for station/object KC8UZG. If no packets are shown the sender has not sent any weather packets the latest 1 day(s).
| Time | Temp. | Humidity | Pressure | Rain* | Wind** | Luminosity | Snow |
|---|---|---|---|---|---|---|---|
| 1778090135 | 13.89° C | 64% | 1012.5 hPa | 0 mm | - | 145 W/m² | - |
| 1778087732 | 13.89° C | 64% | 1012.5 hPa | 0 mm | - | 190 W/m² | - |
| 1778086517 | 14.44° C | 66% | 1012.5 hPa | 0 mm | - | 277 W/m² | - |
| 1778084735 | 13.89° C | 66% | 1012.5 hPa | 0 mm | - | 285 W/m² | - |
| 1778084141 | 13.89° C | 65% | 1012.5 hPa | 0 mm | - | 307 W/m² | - |
| 1778079929 | 12.22° C | 76% | 1011.7 hPa | 0 mm | - | 184 W/m² | - |
| 1778079335 | 12.22° C | 76% | 1011.5 hPa | 0 mm | - | 365 W/m² | - |
| 1778078120 | 10.56° C | 79% | 1011.5 hPa | 0 mm | - | 325 W/m² | - |
| 1778073341 | 8.33° C | 94% | 1010.9 hPa | 0 mm | - | 73 W/m² | - |
| 1778069129 | 6.67° C | 99% | 1010.2 hPa | 0 mm | - | 14 W/m² | - |
| 1778066725 | 6.11° C | 99% | 1009 hPa | 0 mm | - | 4 W/m² | - |
| 1778065538 | 6.11° C | 99% | - | 0 mm | - | 0 W/m² | - |
| 1778064916 | 6.11° C | 99% | - | 0 mm | - | 0 W/m² | - |
| 1778064322 | 6.11° C | 99% | - | 0 mm | - | 0 W/m² | - |
| 1778063729 | 6.11° C | 99% | - | 0 mm | - | 0 W/m² | - |
| 1778061919 | 6.11° C | 99% | - | 0 mm | - | 0 W/m² | - |
| 1778061325 | 5.56° C | 99% | 1008.3 hPa | 0 mm | - | 0 W/m² | - |
| 1778060731 | 5.56° C | 99% | - | 0 mm | - | 0 W/m² | - |
| 1778059516 | 5.56° C | 99% | 1007.3 hPa | 0 mm | - | 0 W/m² | - |
| 1778058922 | 5.56° C | 99% | 1007.3 hPa | 0 mm | - | 0 W/m² | - |
| 1778057734 | 6.11° C | 99% | - | 0 mm | - | 0 W/m² | - |
| 1778057140 | 6.11° C | 99% | - | 0.25 mm | - | 0 W/m² | - |
| 1778055926 | 6.11° C | 99% | - | 0.51 mm | - | 0 W/m² | - |
| 1778052928 | 6.11° C | 99% | 1007.6 hPa | 1.02 mm | - | 0 W/m² | - |
| 1778051740 | 6.11° C | 99% | - | 0.76 mm | - | 0 W/m² | - |
* Rain latest hour (hover to see other rain measurements)
** Current wind speed in m/s (hover to see current wind gust speed)